createdAt,value
2022-09-02T00:00:26.080Z,97.040000
2022-09-02T00:05:28.781Z,97.664000
2022-09-02T00:10:31.603Z,97.040000
2022-09-02T00:15:34.529Z,96.140000
2022-09-02T00:20:16.979Z,96.248000
2022-09-02T00:25:19.926Z,96.908000
2022-09-02T00:30:22.100Z,97.340000
2022-09-02T00:35:24.808Z,96.851429
2022-09-02T00:40:27.880Z,96.320000
2022-09-02T00:45:30.024Z,96.500000
2022-09-02T00:50:32.533Z,95.432000
2022-09-02T00:55:35.186Z,94.868000
2022-09-02T01:00:17.216Z,95.792000
2022-09-02T01:05:19.889Z,94.856000
2022-09-02T01:10:22.315Z,93.290000
2022-09-02T01:15:25.311Z,92.312000
2022-09-02T01:20:27.861Z,91.484000
2022-09-02T01:25:30.323Z,90.560000
2022-09-02T01:30:33.128Z,89.936000
2022-09-02T01:35:35.481Z,89.072000
2022-09-02T01:40:18.024Z,88.352000
2022-09-02T01:45:20.441Z,87.404000
2022-09-02T01:50:23.195Z,86.282857
2022-09-02T01:55:25.830Z,85.808000
2022-09-02T02:00:28.532Z,85.088000
2022-09-02T02:05:30.849Z,84.332000
2022-09-02T02:10:33.499Z,83.804000
2022-09-02T02:15:36.223Z,83.036000
2022-09-02T02:20:18.435Z,83.120000
2022-09-02T02:25:21.150Z,82.652000
2022-09-02T02:30:23.423Z,82.130000
2022-09-02T02:35:25.834Z,82.040000
2022-09-02T02:40:28.260Z,81.908000
2022-09-02T02:45:30.803Z,81.656000
2022-09-02T02:50:33.637Z,81.212000
2022-09-02T02:55:36.193Z,80.864000
2022-09-02T03:00:18.155Z,80.960000
2022-09-02T03:05:21.106Z,81.104000
2022-09-02T03:10:23.439Z,81.564286
2022-09-02T03:15:25.897Z,82.232000
2022-09-02T03:20:28.480Z,82.988000
2022-09-02T03:25:35.529Z,83.744000
2022-09-02T03:30:33.691Z,83.948000
2022-09-02T03:35:15.958Z,83.852000
2022-09-02T03:40:18.432Z,83.240000
2022-09-02T03:45:21.268Z,83.180000
2022-09-02T03:50:24.021Z,84.122857
2022-09-02T03:55:26.305Z,84.716000
2022-09-02T04:00:28.794Z,84.764000
2022-09-02T04:05:31.749Z,84.104000
2022-09-02T04:10:34.423Z,83.144000
2022-09-02T04:15:16.779Z,83.204000
2022-09-02T04:20:19.447Z,82.736000
2022-09-02T04:25:24.209Z,81.705714
2022-09-02T04:30:24.974Z,81.032000
2022-09-02T04:35:27.548Z,80.588000
2022-09-02T04:40:30.035Z,81.224000
2022-09-02T04:45:32.660Z,82.160000
2022-09-02T04:50:34.821Z,81.968000
2022-09-02T04:55:17.416Z,81.728000
2022-09-02T05:00:20.141Z,81.332000
2022-09-02T05:05:23.297Z,81.345714
2022-09-02T05:10:26.106Z,81.188000
2022-09-02T05:15:28.618Z,81.008000
2022-09-02T05:20:30.902Z,80.468000
2022-09-02T05:25:33.613Z,81.032000
2022-09-02T05:30:16.115Z,81.368000
2022-09-02T05:35:19.261Z,80.408000
2022-09-02T05:40:22.514Z,79.268000
2022-09-02T05:45:24.594Z,79.905714
2022-09-02T05:50:27.213Z,80.480000
2022-09-02T05:55:29.716Z,80.612000
2022-09-02T06:00:32.344Z,80.696000
2022-09-02T06:05:35.261Z,81.344000
2022-09-02T06:10:17.219Z,80.036000
2022-09-02T06:15:19.918Z,76.580000
2022-09-02T06:20:21.980Z,74.396000
2022-09-02T06:25:25.016Z,71.381429
2022-09-02T06:30:27.875Z,70.388000
2022-09-02T06:35:30.337Z,69.884000
2022-09-02T06:40:33.248Z,69.800000
2022-09-02T06:45:35.836Z,69.632000
2022-09-02T06:50:18.039Z,69.320000
2022-09-02T06:55:20.555Z,69.140000
2022-09-02T07:00:23.150Z,68.848571
2022-09-02T07:05:25.648Z,68.804000
2022-09-02T07:10:28.713Z,68.192000
2022-09-02T07:15:31.402Z,68.264000
2022-09-02T07:20:33.929Z,67.604000
2022-09-02T07:25:16.481Z,68.216000
2022-09-02T07:30:19.201Z,68.516000
2022-09-02T07:35:21.635Z,68.216000
2022-09-02T07:40:24.239Z,69.504286
2022-09-02T07:45:26.685Z,70.496000
2022-09-02T07:50:29.147Z,69.740000
2022-09-02T07:55:31.703Z,69.476000
2022-09-02T08:00:34.095Z,68.960000
2022-09-02T08:05:16.817Z,68.360000
2022-09-02T08:10:19.544Z,68.864000
2022-09-02T08:15:21.893Z,68.432000
2022-09-02T08:20:24.671Z,69.028571
2022-09-02T08:25:27.193Z,69.560000
2022-09-02T08:30:29.279Z,68.840000
2022-09-02T08:35:31.884Z,68.180000
2022-09-02T08:40:34.718Z,67.892000
2022-09-02T08:45:17.072Z,67.712000
2022-09-02T08:50:19.843Z,67.892000
2022-09-02T08:55:22.119Z,68.732857
2022-09-02T09:00:24.875Z,68.252000
2022-09-02T09:05:27.458Z,67.784000
2022-09-02T09:10:30.110Z,67.628000
2022-09-02T09:15:32.987Z,67.112000
2022-09-02T09:20:35.546Z,66.596000
2022-09-02T09:25:17.688Z,65.336000
2022-09-02T09:30:20.920Z,64.208000
2022-09-02T09:35:24.355Z,64.837143
2022-09-02T09:40:27.441Z,64.700000
2022-09-02T09:45:30.060Z,63.764000
2022-09-02T09:50:32.624Z,63.728000
2022-09-02T09:55:39.766Z,63.332000
2022-09-02T10:00:17.671Z,62.516000
2022-09-02T10:05:20.350Z,62.660000
2022-09-02T10:10:22.885Z,62.664286
2022-09-02T10:15:25.573Z,62.216000
2022-09-02T10:20:28.251Z,61.772000
2022-09-02T10:25:31.259Z,64.712000
2022-09-02T10:30:33.322Z,69.284000
2022-09-02T10:35:35.968Z,70.472000
2022-09-02T10:40:18.574Z,70.100000
2022-09-02T10:45:20.927Z,68.048000
2022-09-02T10:50:23.553Z,66.200000
2022-09-02T10:55:26.143Z,65.024000
2022-09-02T11:00:28.774Z,64.616000
2022-09-02T11:05:31.402Z,63.800000
2022-09-02T11:10:34.467Z,63.524000
2022-09-02T11:15:17.897Z,63.068000
2022-09-02T11:20:21.080Z,62.828000
2022-09-02T11:25:24.132Z,64.091429
2022-09-02T11:30:27.495Z,64.424000
2022-09-02T11:35:30.706Z,64.568000
2022-09-02T11:40:34.891Z,64.112000
2022-09-02T11:45:16.196Z,63.764000
2022-09-02T11:50:19.095Z,63.272000
2022-09-02T11:55:21.804Z,63.080000
2022-09-02T12:00:24.746Z,62.484286
2022-09-02T12:05:27.990Z,62.480000
2022-09-02T12:10:30.705Z,62.312000
2022-09-02T12:15:33.248Z,62.444000
2022-09-02T12:20:36.142Z,61.940000
2022-09-02T12:25:18.416Z,61.352000
2022-09-02T12:30:20.903Z,60.812000
2022-09-02T12:35:23.571Z,61.005714
2022-09-02T12:40:26.007Z,61.268000
2022-09-02T12:45:29.011Z,59.108000
2022-09-02T12:50:31.007Z,57.440000
2022-09-02T12:55:33.905Z,57.548000
2022-09-02T13:00:16.124Z,58.340000
2022-09-02T13:05:19.258Z,58.988000
2022-09-02T13:10:22.102Z,58.964000
2022-09-02T13:15:24.918Z,59.720000
2022-09-02T13:20:28.345Z,59.492000
2022-09-02T13:25:31.228Z,60.104000
2022-09-02T13:30:33.930Z,60.644000
2022-09-02T13:35:16.048Z,61.268000
2022-09-02T13:40:18.872Z,62.192000
2022-09-02T13:45:21.326Z,62.528000
2022-09-02T13:50:23.930Z,62.741429
2022-09-02T13:55:26.549Z,64.064000
2022-09-02T14:00:29.205Z,63.452000
2022-09-02T14:05:31.602Z,63.092000
2022-09-02T14:10:34.136Z,62.468000
2022-09-02T14:15:16.551Z,62.864000
2022-09-02T14:20:19.261Z,63.752000
2022-09-02T14:25:26.658Z,63.416000
2022-09-02T14:30:24.290Z,63.821429
2022-09-02T14:35:26.848Z,63.824000
2022-09-02T14:40:29.569Z,64.400000
2022-09-02T14:45:31.961Z,64.976000
2022-09-02T14:50:34.671Z,65.396000
2022-09-02T14:55:17.147Z,66.272000
2022-09-02T15:00:19.834Z,67.436000
2022-09-02T15:05:22.486Z,68.450000
2022-09-02T15:10:25.016Z,69.116000
2022-09-02T15:15:27.643Z,69.224000
2022-09-02T15:20:30.807Z,69.488000
2022-09-02T15:25:33.526Z,70.160000
2022-09-02T15:30:35.733Z,70.616000
2022-09-02T15:35:18.595Z,71.252000
2022-09-02T15:40:22.817Z,71.744000
2022-09-02T15:45:24.849Z,72.165714
2022-09-02T15:50:28.275Z,72.356000
2022-09-02T15:55:30.057Z,73.196000
2022-09-02T16:00:32.837Z,73.712000
2022-09-02T16:05:35.268Z,73.544000
2022-09-02T16:10:17.516Z,74.132000
2022-09-02T16:15:20.344Z,74.636000
2022-09-02T16:20:22.905Z,75.161429
2022-09-02T16:25:25.371Z,75.920000
2022-09-02T16:30:28.236Z,76.112000
2022-09-02T16:35:30.612Z,76.916000
2022-09-02T16:40:33.197Z,77.144000
2022-09-02T16:45:36.019Z,78.044000
2022-09-02T16:50:18.193Z,78.968000
2022-09-02T16:55:20.807Z,79.580000
2022-09-02T17:00:23.409Z,79.674286
2022-09-02T17:05:26.101Z,80.684000
2022-09-02T17:10:28.722Z,80.756000
2022-09-02T17:15:31.161Z,82.208000
2022-09-02T17:20:33.752Z,81.932000
2022-09-02T17:25:16.257Z,83.072000
2022-09-02T17:30:18.815Z,82.136000
2022-09-02T17:35:21.245Z,81.596000
2022-09-02T17:40:23.937Z,81.590000
2022-09-02T17:45:26.606Z,81.392000
2022-09-02T17:50:29.563Z,82.772000
2022-09-02T17:55:31.952Z,82.676000
2022-09-02T18:00:34.533Z,82.892000
2022-09-02T18:05:16.799Z,82.268000
2022-09-02T18:10:19.550Z,82.772000
2022-09-02T18:15:22.293Z,83.036000
2022-09-02T18:20:24.697Z,83.801429
2022-09-02T18:25:27.379Z,84.344000
2022-09-02T18:30:29.869Z,84.860000
2022-09-02T18:35:32.819Z,85.664000
2022-09-02T18:40:35.710Z,85.244000
2022-09-02T18:45:21.594Z,85.376000
2022-09-02T18:50:45.035Z,85.304000
2022-09-02T18:55:23.711Z,85.858571
2022-09-02T19:00:26.623Z,86.312000
2022-09-02T19:05:29.413Z,86.036000
2022-09-02T19:10:32.160Z,86.960000
2022-09-02T19:15:35.910Z,86.828000
2022-09-02T19:20:17.259Z,86.132000
2022-09-02T19:25:20.096Z,86.996000
2022-09-02T19:30:22.420Z,87.632857
2022-09-02T19:35:24.905Z,87.752000
2022-09-02T19:40:27.486Z,89.468000
2022-09-02T19:45:30.230Z,89.456000
2022-09-02T19:50:32.831Z,88.364000
2022-09-02T19:55:35.407Z,88.028000
2022-09-02T20:00:17.895Z,88.616000
2022-09-02T20:05:20.515Z,88.556000
2022-09-02T20:10:28.123Z,88.712857
2022-09-02T20:15:25.903Z,89.444000
2022-09-02T20:20:28.498Z,89.252000
2022-09-02T20:25:31.129Z,90.452000
2022-09-02T20:30:33.735Z,89.840000
2022-09-02T20:35:16.183Z,89.612000
2022-09-02T20:40:18.932Z,90.020000
2022-09-02T20:45:21.423Z,90.572000
2022-09-02T20:50:23.938Z,90.885714
2022-09-02T20:55:26.768Z,91.796000
2022-09-02T21:00:29.399Z,92.732000
2022-09-02T21:05:32.219Z,92.192000
2022-09-02T21:10:34.905Z,91.580000
2022-09-02T21:15:17.421Z,92.384000
2022-09-02T21:20:19.701Z,93.860000
2022-09-02T21:25:22.269Z,94.575714
2022-09-02T21:30:24.923Z,93.356000
2022-09-02T21:35:27.324Z,92.936000
2022-09-02T21:40:30.083Z,92.804000
2022-09-02T21:45:34.051Z,93.536000
2022-09-02T21:50:35.897Z,93.908000
2022-09-02T21:55:18.623Z,93.536000
2022-09-02T22:00:21.174Z,93.260000
2022-09-02T22:05:24.103Z,92.930000
2022-09-02T22:10:26.911Z,94.304000
2022-09-02T22:15:29.534Z,93.752000
2022-09-02T22:20:32.217Z,94.016000
2022-09-02T22:25:34.917Z,94.148000
2022-09-02T22:30:17.539Z,94.220000
2022-09-02T22:35:20.364Z,94.820000
2022-09-02T22:40:22.931Z,94.035714
2022-09-02T22:45:25.494Z,93.944000
2022-09-02T22:50:28.149Z,94.148000
2022-09-02T22:55:30.621Z,93.596000
2022-09-02T23:00:33.342Z,93.356000
2022-09-02T23:05:35.969Z,93.080000
2022-09-02T23:10:18.207Z,93.596000
2022-09-02T23:15:20.859Z,94.088000
2022-09-02T23:20:23.574Z,94.601429
2022-09-02T23:25:26.026Z,94.520000
2022-09-02T23:30:28.557Z,93.992000
2022-09-02T23:35:31.140Z,94.436000
2022-09-02T23:40:33.939Z,94.520000
2022-09-02T23:45:16.065Z,94.388000
2022-09-02T23:50:18.816Z,94.352000
2022-09-02T23:55:21.152Z,94.508000
